Time;durP1;ratioP1;P1;durP2;ratioP2;P2;SDS_P1;SDS_P2;PMS_P1;PMS_P2;Temp;Humidity;BMP_temperature;BMP_pressure;BME280_temperature;BME280_humidity;BME280_pressure;Samples;Min_cycle;Max_cycle;Signal;HPM_P1;HPM_P2
2021/09/01 00:02:23;;;;;;;6.73;6.03;;;16.80;99.90;;;;;;5070853;28;20464;-68
2021/09/01 00:04:50;;;;;;;7.37;6.77;;;16.80;99.90;;;;;;5072590;28;20462;-67
2021/09/01 00:07:17;;;;;;;7.87;7.10;;;16.80;99.90;;;;;;5072062;28;20788;-68
2021/09/01 00:09:44;;;;;;;8.57;7.67;;;16.80;99.90;;;;;;5077349;28;20504;-67
2021/09/01 00:12:11;;;;;;;9.97;8.97;;;16.80;99.90;;;;;;5078607;28;20476;-67
2021/09/01 00:14:38;;;;;;;7.73;7.03;;;16.80;99.90;;;;;;5071978;28;20975;-68
2021/09/01 00:17:05;;;;;;;8.60;7.80;;;16.70;99.90;;;;;;5071993;28;20471;-68
2021/09/01 00:19:33;;;;;;;9.17;8.37;;;16.70;99.90;;;;;;5072591;28;20483;-67
2021/09/01 00:22:01;;;;;;;8.23;7.43;;;16.70;99.90;;;;;;5068722;28;20470;-68
2021/09/01 00:24:28;;;;;;;8.63;7.70;;;16.70;99.90;;;;;;5072413;28;20469;-68
2021/09/01 00:26:54;;;;;;;8.77;7.80;;;16.70;99.90;;;;;;5071434;28;20465;-68
2021/09/01 00:29:21;;;;;;;8.83;7.60;;;16.70;99.90;;;;;;5071185;28;20462;-67
2021/09/01 00:31:48;;;;;;;8.27;7.47;;;16.70;99.90;;;;;;5070690;28;20476;-68
2021/09/01 00:34:15;;;;;;;11.57;9.07;;;16.70;99.90;;;;;;5071519;28;20477;-67
2021/09/01 00:36:43;;;;;;;11.50;9.23;;;16.60;99.90;;;;;;5064388;28;20474;-68
2021/09/01 00:39:10;;;;;;;10.53;8.43;;;16.60;99.90;;;;;;5068894;28;20478;-68
2021/09/01 00:41:37;;;;;;;9.10;8.27;;;16.60;99.90;;;;;;5065940;28;20465;-68
2021/09/01 00:44:18;;;;;;;7.30;6.70;;;16.60;99.90;;;;;;5061391;28;20470;-69
2021/09/01 00:46:47;;;;;;;7.43;6.73;;;16.60;99.90;;;;;;5069668;28;20501;-68
2021/09/01 00:49:14;;;;;;;7.77;7.07;;;16.60;99.90;;;;;;5065602;28;20485;-69
2021/09/01 00:51:43;;;;;;;6.97;6.37;;;16.60;99.90;;;;;;5066448;28;20471;-69
2021/09/01 00:54:12;;;;;;;7.53;6.83;;;16.50;99.90;;;;;;5062572;28;20477;-68
2021/09/01 00:56:41;;;;;;;9.48;8.57;;;16.50;99.90;;;;;;5065041;28;20430;-69
2021/09/01 00:59:08;;;;;;;10.57;8.40;;;16.50;99.90;;;;;;5060088;28;20227;-69
2021/09/01 01:01:37;;;;;;;9.17;8.30;;;16.60;99.90;;;;;;5070293;28;20474;-69
2021/09/01 01:04:04;;;;;;;12.10;9.90;;;16.50;99.90;;;;;;5064566;28;20474;-68
2021/09/01 01:06:31;;;;;;;10.97;9.87;;;16.50;99.90;;;;;;5071426;28;21031;-68
2021/09/01 01:08:59;;;;;;;8.53;7.70;;;16.60;99.90;;;;;;5069194;28;20472;-68
2021/09/01 01:11:26;;;;;;;8.93;7.80;;;16.60;99.90;;;;;;5068491;28;20689;-69
2021/09/01 01:13:53;;;;;;;8.83;7.93;;;16.50;99.90;;;;;;5069401;28;20469;-68
2021/09/01 01:16:22;;;;;;;8.40;7.60;;;16.50;99.90;;;;;;5071402;28;20461;-69
2021/09/01 01:18:50;;;;;;;9.03;8.23;;;16.50;99.90;;;;;;5071190;28;20477;-69
2021/09/01 01:21:18;;;;;;;11.00;9.73;;;16.50;99.90;;;;;;5074339;28;20519;-69
2021/09/01 01:23:47;;;;;;;10.80;9.80;;;16.50;99.90;;;;;;5069740;28;20473;-69
2021/09/01 01:26:15;;;;;;;10.80;9.80;;;16.50;99.90;;;;;;5061897;28;20474;-68
2021/09/01 01:28:46;;;;;;;11.33;10.17;;;16.50;99.90;;;;;;5066286;28;20811;-70
2021/09/01 01:31:13;;;;;;;10.63;9.60;;;16.50;99.90;;;;;;5059893;28;20477;-69
2021/09/01 01:33:39;;;;;;;10.20;9.30;;;16.50;99.90;;;;;;5064798;28;20469;-68
2021/09/01 01:36:06;;;;;;;8.63;7.93;;;16.50;99.90;;;;;;5062312;28;20479;-69
2021/09/01 01:38:33;;;;;;;36.77;32.80;;;16.50;99.90;;;;;;5070491;28;20476;-67
2021/09/01 01:41:01;;;;;;;17.60;15.90;;;16.40;99.90;;;;;;5074917;28;20780;-68
2021/09/01 01:43:31;;;;;;;10.67;9.67;;;16.40;99.90;;;;;;5074481;28;20464;-68
2021/09/01 01:45:58;;;;;;;11.90;10.73;;;16.40;99.90;;;;;;5074853;28;20815;-68
2021/09/01 01:48:25;;;;;;;12.13;10.93;;;16.40;99.90;;;;;;5064445;28;20418;-68
2021/09/01 01:50:53;;;;;;;10.77;9.27;;;16.50;99.90;;;;;;5061797;28;20472;-69
2021/09/01 01:53:20;;;;;;;10.10;9.10;;;16.50;99.90;;;;;;5063466;28;20527;-68
2021/09/01 01:55:46;;;;;;;11.17;9.17;;;16.50;99.90;;;;;;5064280;28;20473;-68
2021/09/01 01:58:13;;;;;;;10.40;9.30;;;16.50;99.90;;;;;;5062664;28;20584;-68
2021/09/01 02:00:41;;;;;;;9.20;8.40;;;16.50;99.90;;;;;;5063684;28;21007;-68
2021/09/01 02:03:08;;;;;;;9.70;8.70;;;16.50;99.90;;;;;;5063172;28;20955;-68
2021/09/01 02:05:35;;;;;;;10.00;9.15;;;16.50;99.90;;;;;;5062351;28;20441;-68
2021/09/01 02:08:02;;;;;;;11.30;10.30;;;16.50;99.90;;;;;;5065054;28;20230;-67
2021/09/01 02:10:29;;;;;;;9.60;8.70;;;16.50;99.90;;;;;;5062389;28;20806;-68
2021/09/01 02:12:56;;;;;;;8.60;7.90;;;16.50;99.90;;;;;;5064034;28;20471;-68
2021/09/01 02:15:23;;;;;;;10.30;9.20;;;16.50;99.90;;;;;;5063217;28;20470;-68
2021/09/01 02:17:51;;;;;;;10.07;9.00;;;16.50;99.90;;;;;;5063382;28;20825;-68
2021/09/01 02:20:18;;;;;;;10.35;9.45;;;16.50;99.90;;;;;;5061451;28;20450;-68
2021/09/01 02:22:47;;;;;;;10.43;9.53;;;16.50;99.90;;;;;;5063130;28;20446;-67
2021/09/01 02:25:15;;;;;;;9.27;8.47;;;16.50;99.90;;;;;;5063215;28;20545;-68
2021/09/01 02:27:42;;;;;;;12.05;10.85;;;16.60;99.90;;;;;;5061832;28;20934;-67
2021/09/01 02:30:12;;;;;;;13.03;10.67;;;16.60;99.90;;;;;;5063241;28;20251;-67
2021/09/01 02:32:39;;;;;;;11.30;10.20;;;16.70;99.90;;;;;;5061582;28;20449;-68
2021/09/01 02:35:08;;;;;;;9.97;8.97;;;16.70;99.90;;;;;;5062209;28;20469;-68
2021/09/01 02:37:34;;;;;;;13.50;12.17;;;16.70;99.90;;;;;;5063060;28;20467;-68
2021/09/01 02:40:01;;;;;;;12.33;11.13;;;16.70;99.90;;;;;;5063527;28;20471;-68
2021/09/01 02:42:28;;;;;;;12.00;10.90;;;16.70;99.90;;;;;;5061085;28;20527;-68
2021/09/01 02:44:57;;;;;;;11.90;10.70;;;16.70;99.90;;;;;;5064411;28;20223;-68
2021/09/01 02:47:24;;;;;;;9.63;8.73;;;16.70;99.90;;;;;;5062684;28;20501;-68
2021/09/01 02:49:51;;;;;;;9.00;8.10;;;16.60;99.90;;;;;;5063949;28;20480;-68
2021/09/01 02:52:19;;;;;;;12.38;11.25;;;16.60;99.90;;;;;;5065884;28;20442;-68
2021/09/01 02:54:46;;;;;;;13.20;11.90;;;16.60;99.90;;;;;;5073766;28;20926;-68
2021/09/01 02:57:13;;;;;;;12.60;10.70;;;16.60;99.90;;;;;;5073635;28;20236;-68
2021/09/01 02:59:40;;;;;;;11.27;10.07;;;16.60;99.90;;;;;;5074045;28;20545;-68
2021/09/01 03:02:06;;;;;;;11.07;10.00;;;16.60;99.90;;;;;;5073482;28;20470;-68
2021/09/01 03:04:33;;;;;;;11.83;10.73;;;16.60;99.90;;;;;;5073891;28;20478;-68
2021/09/01 03:07:00;;;;;;;11.53;10.40;;;16.50;99.90;;;;;;5073791;28;20470;-68
2021/09/01 03:09:28;;;;;;;14.85;13.45;;;16.50;99.90;;;;;;5072298;28;20476;-68
2021/09/01 03:11:55;;;;;;;12.07;10.87;;;16.50;99.90;;;;;;5073977;28;20799;-68
2021/09/01 03:14:22;;;;;;;11.50;10.30;;;16.60;99.90;;;;;;5073327;28;20470;-68
2021/09/01 03:16:49;;;;;;;13.60;11.37;;;16.50;99.90;;;;;;5073573;28;20449;-68
2021/09/01 03:19:15;;;;;;;11.90;10.70;;;16.50;99.90;;;;;;5072983;28;20470;-68
2021/09/01 03:21:42;;;;;;;12.13;10.93;;;16.50;99.90;;;;;;5073601;28;20474;-68
2021/09/01 03:24:09;;;;;;;13.97;10.60;;;16.50;99.90;;;;;;5073069;28;20470;-68
2021/09/01 03:26:37;;;;;;;12.90;11.73;;;16.40;99.90;;;;;;5073639;28;20469;-68
2021/09/01 03:29:04;;;;;;;14.33;11.07;;;16.40;99.90;;;;;;5073361;28;20561;-68
2021/09/01 03:31:31;;;;;;;12.27;11.18;;;16.40;99.90;;;;;;5072057;28;20500;-68
2021/09/01 03:33:58;;;;;;;9.63;8.73;;;16.40;99.90;;;;;;5073368;28;20680;-68
2021/09/01 03:36:25;;;;;;;10.57;9.57;;;16.40;99.90;;;;;;5072827;28;20842;-68
2021/09/01 03:38:52;;;;;;;10.43;9.43;;;16.40;99.90;;;;;;5067636;28;20491;-68
2021/09/01 03:41:19;;;;;;;10.03;9.03;;;16.40;99.90;;;;;;5072775;28;20473;-68
2021/09/01 03:43:48;;;;;;;9.30;8.50;;;16.40;99.90;;;;;;5060102;28;20804;-68
2021/09/01 03:46:14;;;;;;;12.10;10.90;;;16.30;99.90;;;;;;5071796;28;20476;-68
2021/09/01 03:48:41;;;;;;;10.77;9.67;;;16.30;99.90;;;;;;5072837;28;20466;-68
2021/09/01 03:51:08;;;;;;;9.90;8.90;;;16.30;99.90;;;;;;5072901;28;20488;-68
2021/09/01 03:53:35;;;;;;;10.90;9.77;;;16.30;99.90;;;;;;5072699;28;20576;-68
2021/09/01 03:56:02;;;;;;;9.47;8.60;;;16.30;99.90;;;;;;5072965;28;20472;-68
2021/09/01 03:58:29;;;;;;;10.07;9.07;;;16.20;99.90;;;;;;5072356;28;20499;-68
2021/09/01 04:00:57;;;;;;;11.20;9.82;;;16.20;99.90;;;;;;5072202;28;20453;-68
2021/09/01 04:03:24;;;;;;;10.53;9.07;;;16.20;99.90;;;;;;5059195;28;20222;-68
2021/09/01 04:05:51;;;;;;;10.40;9.30;;;16.20;99.90;;;;;;5072770;28;20805;-68
2021/09/01 04:08:18;;;;;;;10.17;9.27;;;16.20;99.90;;;;;;5059351;28;20814;-68
2021/09/01 04:10:44;;;;;;;10.27;9.27;;;16.20;99.90;;;;;;5072420;28;20464;-67
2021/09/01 04:13:11;;;;;;;23.97;21.43;;;16.20;99.90;;;;;;5052067;28;20471;-68
2021/09/01 04:15:38;;;;;;;16.37;14.77;;;16.20;99.90;;;;;;5051120;28;20454;-68
2021/09/01 04:18:06;;;;;;;12.23;10.37;;;16.20;99.90;;;;;;5050953;28;20903;-68
2021/09/01 04:20:33;;;;;;;11.47;10.37;;;16.20;99.90;;;;;;5050613;28;20467;-68
2021/09/01 04:23:00;;;;;;;11.00;9.90;;;16.20;99.90;;;;;;5051025;28;20557;-68
2021/09/01 04:25:27;;;;;;;11.57;10.57;;;16.20;99.90;;;;;;5051023;28;20463;-68
2021/09/01 04:27:54;;;;;;;10.50;9.50;;;16.20;99.90;;;;;;5052562;28;20463;-68
2021/09/01 04:30:21;;;;;;;11.93;10.23;;;16.20;99.90;;;;;;5052148;28;20477;-67
2021/09/01 04:32:47;;;;;;;12.20;11.10;;;16.20;99.90;;;;;;5051684;28;20906;-68
2021/09/01 04:35:16;;;;;;;11.40;10.40;;;16.10;99.90;;;;;;5051620;28;20526;-68
2021/09/01 04:37:42;;;;;;;10.60;9.60;;;16.20;99.90;;;;;;5052443;28;20250;-68
2021/09/01 04:40:10;;;;;;;12.45;11.25;;;16.20;99.90;;;;;;5043615;28;20450;-68
2021/09/01 04:42:37;;;;;;;12.33;11.03;;;16.20;99.90;;;;;;5052025;28;20237;-68
2021/09/01 04:45:05;;;;;;;12.27;11.15;;;16.30;99.90;;;;;;5051610;28;20446;-69
2021/09/01 04:47:32;;;;;;;11.23;10.07;;;16.40;99.90;;;;;;5051965;28;20228;-69
2021/09/01 04:49:59;;;;;;;10.57;9.53;;;16.30;99.90;;;;;;5052576;28;20480;-69
2021/09/01 04:52:27;;;;;;;10.30;9.30;;;16.30;99.90;;;;;;5051835;28;20470;-68
2021/09/01 04:54:54;;;;;;;11.38;10.27;;;16.40;99.90;;;;;;5051487;28;20431;-69
2021/09/01 04:57:20;;;;;;;12.80;11.60;;;16.40;99.90;;;;;;5052893;28;20436;-68
2021/09/01 04:59:47;;;;;;;12.23;11.07;;;16.40;99.90;;;;;;5055410;28;20436;-69
2021/09/01 05:02:14;;;;;;;10.77;9.77;;;16.40;99.90;;;;;;5056268;28;20774;-69
2021/09/01 05:04:41;;;;;;;11.60;10.43;;;16.40;99.90;;;;;;5056147;28;20315;-69
2021/09/01 05:07:08;;;;;;;11.63;10.50;;;16.50;99.90;;;;;;5056076;28;20492;-69
2021/09/01 05:09:36;;;;;;;9.83;8.93;;;16.40;99.90;;;;;;5055716;28;20474;-69
2021/09/01 05:12:03;;;;;;;11.23;9.70;;;16.40;99.90;;;;;;5056125;28;20956;-70
2021/09/01 05:14:30;;;;;;;11.37;10.27;;;16.40;99.90;;;;;;5055664;28;20470;-70
2021/09/01 05:16:57;;;;;;;10.70;9.80;;;16.40;99.90;;;;;;5055779;28;20461;-69
2021/09/01 05:19:24;;;;;;;9.23;8.30;;;16.40;99.90;;;;;;5055701;28;20227;-70
2021/09/01 05:21:52;;;;;;;10.63;9.73;;;16.40;99.90;;;;;;5055836;28;20458;-68
2021/09/01 05:24:29;;;;;;;12.73;10.80;;;16.40;99.90;;;;;;5056103;28;20796;-68
2021/09/01 05:27:07;;;;;;;10.60;9.50;;;16.40;99.90;;;;;;5056484;28;20466;-68
2021/09/01 05:29:38;;;;;;;11.37;10.30;;;16.40;99.90;;;;;;5055822;28;21869;-68
2021/09/01 05:32:07;;;;;;;11.53;10.43;;;16.40;99.90;;;;;;5055750;28;20992;-68
2021/09/01 05:34:34;;;;;;;17.23;13.23;;;16.30;99.90;;;;;;5055386;28;20456;-69
2021/09/01 05:37:00;;;;;;;14.27;12.88;;;16.30;99.90;;;;;;5055420;28;20786;-69
2021/09/01 05:39:28;;;;;;;14.23;11.93;;;16.30;99.90;;;;;;5055304;28;20488;-69
2021/09/01 05:41:55;;;;;;;15.17;13.57;;;16.30;99.90;;;;;;5055623;28;20800;-69
2021/09/01 05:44:24;;;;;;;11.17;10.00;;;16.40;99.90;;;;;;5055242;28;20470;-69
2021/09/01 05:46:53;;;;;;;12.70;11.40;;;16.40;99.90;;;;;;5054437;28;20446;-69
2021/09/01 05:49:23;;;;;;;10.20;9.30;;;16.50;99.90;;;;;;5053536;28;20435;-69
2021/09/01 05:51:50;;;;;;;10.50;9.27;;;16.60;99.90;;;;;;5054269;28;20442;-69
2021/09/01 05:54:17;;;;;;;9.93;8.98;;;16.70;99.90;;;;;;5054758;28;20450;-69
2021/09/01 05:56:45;;;;;;;9.40;8.60;;;16.80;99.90;;;;;;5054178;28;20432;-68
2021/09/01 05:59:17;;;;;;;15.07;10.87;;;16.90;99.90;;;;;;5054807;28;20236;-69
2021/09/01 06:01:55;;;;;;;11.35;10.27;;;16.90;99.90;;;;;;5054072;28;20936;-69
2021/09/01 06:04:25;;;;;;;12.18;11.07;;;17.00;99.90;;;;;;5053552;28;20798;-69
2021/09/01 06:06:53;;;;;;;11.80;10.80;;;17.10;99.90;;;;;;5054255;28;20519;-68
2021/09/01 06:09:20;;;;;;;11.02;10.13;;;17.20;99.90;;;;;;5053467;28;20443;-68
2021/09/01 06:11:53;;;;;;;11.48;10.27;;;17.20;99.90;;;;;;5054963;28;20435;-69
2021/09/01 06:14:20;;;;;;;10.10;9.17;;;17.20;99.90;;;;;;5054651;28;20251;-68
2021/09/01 06:16:48;;;;;;;10.05;9.25;;;17.20;99.90;;;;;;5054528;28;20755;-68
2021/09/01 06:19:15;;;;;;;11.82;9.45;;;17.20;99.90;;;;;;5054464;28;20141;-68
2021/09/01 06:21:42;;;;;;;11.13;10.20;;;17.20;99.90;;;;;;5053610;28;20431;-68
2021/09/01 06:24:09;;;;;;;10.70;9.80;;;17.30;99.90;;;;;;5054327;28;20770;-68
2021/09/01 06:26:36;;;;;;;10.45;9.45;;;17.40;99.90;;;;;;5053653;28;20436;-68
2021/09/01 06:29:02;;;;;;;9.38;8.57;;;17.40;99.90;;;;;;5053713;28;20453;-69
2021/09/01 06:31:34;;;;;;;11.50;9.90;;;17.50;99.90;;;;;;5053655;28;20452;-68
2021/09/01 06:34:03;;;;;;;18.27;16.30;;;17.50;99.90;;;;;;5054683;28;20303;-67
2021/09/01 06:36:30;;;;;;;14.63;13.23;;;17.60;99.90;;;;;;5053487;28;20440;-67
2021/09/01 06:38:56;;;;;;;12.80;11.60;;;17.60;99.90;;;;;;5054534;28;20231;-67
2021/09/01 06:41:23;;;;;;;12.83;11.63;;;17.60;99.90;;;;;;5053886;28;20487;-68
2021/09/01 06:43:50;;;;;;;12.03;10.73;;;17.60;99.90;;;;;;5054709;28;20477;-68
2021/09/01 06:46:17;;;;;;;10.67;9.10;;;17.60;99.90;;;;;;5053925;28;20481;-68
2021/09/01 06:48:44;;;;;;;10.50;9.50;;;17.60;99.90;;;;;;5053256;28;20435;-68
2021/09/01 06:51:12;;;;;;;10.65;9.65;;;17.60;99.90;;;;;;5053211;28;20465;-68
2021/09/01 06:53:39;;;;;;;9.98;9.07;;;17.70;99.90;;;;;;5052879;28;20878;-68
2021/09/01 06:56:06;;;;;;;9.68;8.77;;;17.80;99.90;;;;;;5053548;28;20789;-68
2021/09/01 06:58:32;;;;;;;10.10;9.20;;;17.90;99.90;;;;;;5052978;28;20454;-68
2021/09/01 07:00:59;;;;;;;8.90;8.10;;;18.10;99.90;;;;;;5053293;28;20427;-68
2021/09/01 07:03:26;;;;;;;9.00;8.10;;;18.10;99.90;;;;;;5053492;28;20774;-68
2021/09/01 07:05:53;;;;;;;8.82;8.00;;;18.20;99.90;;;;;;5053102;28;20439;-68
2021/09/01 07:08:22;;;;;;;8.13;7.32;;;18.20;99.90;;;;;;5052462;28;20447;-68
2021/09/01 07:10:50;;;;;;;8.27;7.47;;;18.30;99.90;;;;;;5053890;28;20225;-68
2021/09/01 07:13:17;;;;;;;8.30;7.60;;;18.40;99.90;;;;;;5052623;28;20438;-69
2021/09/01 07:15:45;;;;;;;8.80;7.90;;;18.40;99.90;;;;;;5053703;28;20981;-69
2021/09/01 07:18:12;;;;;;;8.50;7.80;;;18.40;99.90;;;;;;5052815;28;20435;-69
2021/09/01 07:20:40;;;;;;;10.65;9.65;;;18.50;99.90;;;;;;5051930;28;20438;-68
2021/09/01 07:23:07;;;;;;;19.58;17.67;;;18.60;99.90;;;;;;5052692;28;20436;-69
2021/09/01 07:25:36;;;;;;;12.57;11.48;;;18.60;99.90;;;;;;5052284;28;20909;-68
2021/09/01 07:28:05;;;;;;;9.10;8.20;;;18.80;99.90;;;;;;5052657;28;20514;-68
2021/09/01 07:30:32;;;;;;;9.07;8.13;;;18.90;99.90;;;;;;5052869;28;20452;-69
2021/09/01 07:32:59;;;;;;;8.90;8.00;;;19.00;99.90;;;;;;5052739;28;20427;-68
2021/09/01 07:35:26;;;;;;;9.40;8.60;;;19.00;99.90;;;;;;5051994;28;20450;-68
2021/09/01 07:37:54;;;;;;;8.77;7.97;;;19.20;99.90;;;;;;5052141;28;20432;-68
2021/09/01 07:40:23;;;;;;;9.18;8.23;;;19.30;99.90;;;;;;5052504;28;20440;-68
2021/09/01 07:42:51;;;;;;;8.18;7.47;;;19.40;99.90;;;;;;5052479;28;20448;-68
2021/09/01 07:45:20;;;;;;;7.90;7.20;;;19.40;99.90;;;;;;5052178;28;20520;-68
2021/09/01 07:47:49;;;;;;;8.65;7.85;;;19.50;99.90;;;;;;5051845;28;20420;-67
2021/09/01 07:50:16;;;;;;;8.80;8.00;;;19.70;99.90;;;;;;5052134;28;20443;-68
2021/09/01 07:52:43;;;;;;;8.70;7.80;;;19.70;99.90;;;;;;5052508;28;20240;-68
2021/09/01 07:55:11;;;;;;;8.93;8.02;;;19.80;99.90;;;;;;5052446;28;20436;-68
2021/09/01 07:57:37;;;;;;;8.17;7.37;;;19.80;99.90;;;;;;5052581;28;20235;-68
2021/09/01 08:00:08;;;;;;;8.23;7.43;;;19.80;99.90;;;;;;5052188;28;20446;-68
2021/09/01 08:02:35;;;;;;;8.60;7.80;;;19.90;99.90;;;;;;5052266;28;20444;-68
2021/09/01 08:05:02;;;;;;;11.52;10.43;;;19.90;99.90;;;;;;5052720;28;20785;-68
2021/09/01 08:07:29;;;;;;;10.57;9.57;;;19.90;99.90;;;;;;5052271;28;20782;-68
2021/09/01 08:09:56;;;;;;;13.30;12.07;;;19.90;99.90;;;;;;5051693;28;20446;-68
2021/09/01 08:12:22;;;;;;;11.80;10.60;;;19.90;99.90;;;;;;5051840;28;20438;-68
2021/09/01 08:14:49;;;;;;;11.30;10.30;;;19.90;99.90;;;;;;5051475;28;20432;-68
2021/09/01 08:17:18;;;;;;;12.00;11.00;;;20.00;99.90;;;;;;5051798;28;20515;-68
2021/09/01 08:19:47;;;;;;;9.87;9.07;;;20.10;99.90;;;;;;5051268;28;20611;-68
2021/09/01 08:22:14;;;;;;;12.00;10.90;;;20.10;99.90;;;;;;5051301;28;20435;-68
2021/09/01 08:24:43;;;;;;;12.48;11.27;;;20.20;99.90;;;;;;5051304;28;20436;-68
2021/09/01 08:27:11;;;;;;;12.43;11.23;;;20.20;99.90;;;;;;5051589;28;20439;-69
2021/09/01 08:29:39;;;;;;;11.25;10.25;;;20.30;99.90;;;;;;5051041;28;20816;-69
2021/09/01 08:32:07;;;;;;;10.70;9.70;;;20.30;99.90;;;;;;5051316;28;20771;-69
2021/09/01 08:34:36;;;;;;;10.70;9.70;;;20.30;99.90;;;;;;5051053;28;20442;-69
2021/09/01 08:37:03;;;;;;;9.05;8.15;;;20.30;99.90;;;;;;5052244;28;20449;-68
2021/09/01 08:39:31;;;;;;;8.38;7.50;;;20.20;99.90;;;;;;5051210;28;20469;-68
2021/09/01 08:41:58;;;;;;;9.80;8.90;;;20.10;99.90;;;;;;5051207;28;20442;-69
2021/09/01 08:44:25;;;;;;;12.35;11.25;;;20.10;99.90;;;;;;5051560;28;20766;-69
2021/09/01 08:46:52;;;;;;;12.13;10.95;;;20.20;99.90;;;;;;5050921;28;20523;-68
2021/09/01 08:49:20;;;;;;;10.35;9.45;;;20.20;99.90;;;;;;5051323;28;20519;-68
2021/09/01 08:51:48;;;;;;;9.63;8.73;;;20.20;99.90;;;;;;5051225;28;20446;-69
2021/09/01 08:54:16;;;;;;;11.40;10.40;;;20.20;99.90;;;;;;5051370;28;20440;-68
2021/09/01 08:56:43;;;;;;;10.33;9.40;;;20.10;99.90;;;;;;5051247;28;20446;-68
2021/09/01 08:59:10;;;;;;;11.95;10.85;;;20.10;99.90;;;;;;5051135;28;20454;-68
2021/09/01 09:01:42;;;;;;;12.32;10.93;;;20.10;99.90;;;;;;5051748;28;20783;-69
2021/09/01 09:04:15;;;;;;;13.70;12.30;;;19.90;99.90;;;;;;5051054;28;20444;-68
2021/09/01 09:06:51;;;;;;;11.73;10.60;;;19.90;99.90;;;;;;5051802;28;20217;-68
2021/09/01 09:09:20;;;;;;;14.10;12.03;;;19.80;99.90;;;;;;5051743;28;20510;-68
2021/09/01 09:11:47;;;;;;;13.23;11.93;;;19.70;99.90;;;;;;5051045;28;20444;-68
2021/09/01 09:14:20;;;;;;;12.30;11.10;;;19.60;99.90;;;;;;5051824;28;20444;-68
2021/09/01 09:16:47;;;;;;;13.00;11.70;;;19.60;99.90;;;;;;5050651;28;20439;-68
2021/09/01 09:19:14;;;;;;;12.23;11.13;;;19.50;99.90;;;;;;5051217;28;20436;-68
2021/09/01 09:21:41;;;;;;;13.15;11.95;;;19.60;99.90;;;;;;5050517;28;20442;-68
2021/09/01 09:24:33;;;;;;;14.30;11.97;;;19.60;99.90;;;;;;5052189;28;20232;-68
2021/09/01 09:27:00;;;;;;;11.83;10.47;;;19.50;99.90;;;;;;5051799;28;21372;-68
2021/09/01 09:29:31;;;;;;;13.37;11.33;;;19.40;99.90;;;;;;5051940;28;20974;-68
2021/09/01 09:32:01;;;;;;;14.10;12.73;;;19.30;99.90;;;;;;5051103;28;20431;-69
2021/09/01 09:34:34;;;;;;;17.20;12.70;;;19.30;99.90;;;;;;5052052;28;20722;-68
2021/09/01 09:37:03;;;;;;;13.07;11.95;;;19.30;99.90;;;;;;5050765;28;20511;-69
2021/09/01 09:39:43;;;;;;;14.77;12.27;;;19.30;99.90;;;;;;5052217;28;20243;-68
2021/09/01 09:42:10;;;;;;;12.90;11.73;;;19.30;99.90;;;;;;5050914;28;20928;-68
2021/09/01 09:44:41;;;;;;;15.47;12.90;;;19.30;99.90;;;;;;5053501;28;20224;-68
2021/09/01 09:47:08;;;;;;;12.23;10.90;;;19.30;99.90;;;;;;5055140;28;20526;-69
2021/09/01 09:49:35;;;;;;;13.30;11.83;;;19.30;99.90;;;;;;5055449;28;20477;-68
2021/09/01 09:52:15;;;;;;;12.40;11.20;;;19.20;99.90;;;;;;5053932;28;20810;-69
2021/09/01 09:54:43;;;;;;;13.57;12.10;;;19.30;99.90;;;;;;5055535;28;20260;-69
2021/09/01 09:57:11;;;;;;;13.07;11.87;;;19.30;99.90;;;;;;5054081;28;20667;-69
2021/09/01 09:59:39;;;;;;;12.73;11.52;;;19.40;99.90;;;;;;5054575;28;20898;-69
2021/09/01 10:02:07;;;;;;;11.57;10.47;;;19.50;99.90;;;;;;5054882;28;20565;-69
2021/09/01 10:04:33;;;;;;;14.03;12.53;;;19.50;99.90;;;;;;5055509;28;20490;-69
2021/09/01 10:07:00;;;;;;;13.43;12.13;;;19.50;99.90;;;;;;5054703;28;21312;-69
2021/09/01 10:09:27;;;;;;;14.63;13.23;;;19.50;99.90;;;;;;5055170;28;20467;-67
2021/09/01 10:11:58;;;;;;;15.70;11.77;;;19.50;99.90;;;;;;5054646;28;20471;-68
2021/09/01 10:14:25;;;;;;;12.50;11.33;;;19.40;99.90;;;;;;5055200;28;20816;-67
2021/09/01 10:17:02;;;;;;;11.80;10.53;;;19.40;99.90;;;;;;5054591;28;20463;-67
2021/09/01 10:19:31;;;;;;;13.20;11.73;;;19.40;99.90;;;;;;5055219;28;20519;-67
2021/09/01 10:22:01;;;;;;;13.57;12.17;;;19.40;99.90;;;;;;5054505;28;20463;-67
2021/09/01 10:24:31;;;;;;;13.17;11.83;;;19.40;99.90;;;;;;5055004;28;20478;-69
2021/09/01 10:27:06;;;;;;;11.10;10.03;;;19.40;99.90;;;;;;5054680;28;20482;-69
2021/09/01 10:29:44;;;;;;;11.33;9.40;;;19.40;99.90;;;;;;5054759;28;20485;-69
2021/09/01 10:32:29;;;;;;;10.03;9.13;;;19.40;99.90;;;;;;5054097;28;20455;-69
2021/09/01 10:35:30;;;;;;;10.30;9.23;;;19.40;99.90;;;;;;5054340;28;20467;-69
2021/09/01 10:37:59;;;;;;;11.07;9.97;;;19.50;99.90;;;;;;5054287;28;20816;-68
2021/09/01 10:40:55;;;;;;;9.67;8.67;;;19.50;99.90;;;;;;5054678;28;20483;-69
2021/09/01 10:43:24;;;;;;;12.73;11.13;;;19.60;99.90;;;;;;5054377;28;20528;-69
2021/09/01 10:45:56;;;;;;;10.00;9.00;;;19.60;99.90;;;;;;5054385;28;20546;-69
2021/09/01 10:48:23;;;;;;;11.13;9.80;;;19.70;99.90;;;;;;5054032;28;20455;-69
2021/09/01 10:50:51;;;;;;;10.67;9.67;;;19.70;99.90;;;;;;5054453;28;20468;-67
2021/09/01 10:53:21;;;;;;;9.33;8.47;;;19.70;99.90;;;;;;5053783;28;20504;-68
2021/09/01 10:56:07;;;;;;;10.13;9.17;;;19.80;99.90;;;;;;5054250;28;20565;-67
2021/09/01 10:58:40;;;;;;;12.53;11.33;;;19.90;99.90;;;;;;5053957;28;21269;-67
2021/09/01 11:01:12;;;;;;;12.00;10.80;;;19.90;99.90;;;;;;5054240;28;20462;-67
2021/09/01 11:03:42;;;;;;;12.00;10.70;;;20.00;99.90;;;;;;5054203;28;21296;-68
2021/09/01 11:06:24;;;;;;;13.00;11.70;;;20.00;99.90;;;;;;5054073;28;20546;-67
2021/09/01 11:09:01;;;;;;;9.83;8.93;;;20.00;99.90;;;;;;5054577;28;20464;-67
2021/09/01 11:11:49;;;;;;;10.87;9.83;;;20.10;99.90;;;;;;5053783;28;20458;-67
2021/09/01 11:14:31;;;;;;;12.70;10.87;;;20.10;99.90;;;;;;5053636;28;20497;-67
2021/09/01 11:16:58;;;;;;;12.63;11.40;;;20.20;99.90;;;;;;5054012;28;20550;-68
2021/09/01 11:19:25;;;;;;;11.33;10.20;;;20.20;99.90;;;;;;5053420;28;20466;-67
2021/09/01 11:21:52;;;;;;;11.50;10.23;;;20.30;99.90;;;;;;5053887;28;20580;-68
2021/09/01 11:24:20;;;;;;;9.90;9.10;;;20.30;99.90;;;;;;5053393;28;20477;-68
2021/09/01 11:26:53;;;;;;;11.33;10.20;;;20.30;99.90;;;;;;5053842;28;20806;-68
2021/09/01 11:29:30;;;;;;;11.33;10.27;;;20.40;99.90;;;;;;5053165;28;20483;-69
2021/09/01 11:31:56;;;;;;;9.63;8.80;;;20.40;99.90;;;;;;5053852;28;20471;-68
2021/09/01 11:34:23;;;;;;;10.47;9.47;;;20.40;99.90;;;;;;5053151;28;20832;-67
2021/09/01 11:36:50;;;;;;;11.43;10.33;;;20.50;99.90;;;;;;5053384;28;20997;-67
2021/09/01 11:39:17;;;;;;;10.77;9.67;;;20.50;99.90;;;;;;5052658;28;20467;-68
2021/09/01 11:41:49;;;;;;;11.50;10.40;;;20.50;99.90;;;;;;5053367;28;20459;-67
2021/09/01 11:44:16;;;;;;;10.73;9.63;;;20.60;99.90;;;;;;5053115;28;20471;-68
2021/09/01 11:46:44;;;;;;;9.60;8.77;;;20.60;99.90;;;;;;5053183;28;20576;-67
2021/09/01 11:49:12;;;;;;;10.90;9.40;;;20.70;99.90;;;;;;5052965;28;20471;-69
2021/09/01 11:51:42;;;;;;;9.83;8.90;;;20.70;99.90;;;;;;5053235;28;20455;-69
2021/09/01 11:54:10;;;;;;;10.03;9.00;;;20.80;99.90;;;;;;5052619;28;20475;-70
2021/09/01 11:56:37;;;;;;;10.33;8.47;;;20.80;99.90;;;;;;5053139;28;20455;-69
2021/09/01 11:59:06;;;;;;;9.50;8.70;;;20.90;99.90;;;;;;5052867;28;20475;-68
2021/09/01 12:01:36;;;;;;;10.47;8.83;;;20.90;99.90;;;;;;5052731;28;20463;-67
2021/09/01 12:04:05;;;;;;;11.67;8.30;;;21.00;99.90;;;;;;5053125;28;20471;-69
2021/09/01 12:06:37;;;;;;;10.13;8.20;;;21.00;99.90;;;;;;5051974;28;20809;-68
2021/09/01 12:09:05;;;;;;;7.87;7.13;;;21.00;99.90;;;;;;5052673;28;20468;-69
2021/09/01 12:11:33;;;;;;;8.40;7.60;;;21.00;99.90;;;;;;5052544;28;20460;-69
2021/09/01 12:14:05;;;;;;;9.53;8.60;;;21.10;99.90;;;;;;5052745;28;20481;-68
2021/09/01 12:16:32;;;;;;;10.50;8.00;;;21.10;99.90;;;;;;5052290;28;20473;-68
2021/09/01 12:19:04;;;;;;;8.20;7.40;;;21.20;99.90;;;;;;5052777;28;20558;-68
2021/09/01 12:21:51;;;;;;;9.47;7.80;;;21.20;99.90;;;;;;5052433;28;20513;-70
2021/09/01 12:24:23;;;;;;;8.60;7.70;;;21.20;99.90;;;;;;5052320;28;20495;-68
2021/09/01 12:26:55;;;;;;;8.13;7.33;;;21.20;99.90;;;;;;5052680;28;20542;-68
2021/09/01 12:29:35;;;;;;;8.00;7.20;;;21.20;99.90;;;;;;5052067;28;20824;-67
2021/09/01 12:32:04;;;;;;;8.43;7.63;;;21.30;99.90;;;;;;5052656;28;20990;-68
2021/09/01 12:34:37;;;;;;;7.30;6.70;;;21.30;99.90;;;;;;5052313;28;20470;-68
2021/09/01 12:37:08;;;;;;;8.43;7.37;;;21.30;99.90;;;;;;5052456;28;20483;-68
2021/09/01 12:39:50;;;;;;;10.20;8.20;;;21.30;99.90;;;;;;5052140;28;20532;-67
2021/09/01 12:42:22;;;;;;;9.43;6.90;;;21.30;99.90;;;;;;5052215;28;20485;-68
2021/09/01 12:44:50;;;;;;;10.73;8.20;;;21.30;99.90;;;;;;5052805;28;20486;-68